Time;durP1;ratioP1;P1;durP2;ratioP2;P2;SDS_P1;SDS_P2;PMS_P1;PMS_P2;Temp;Humidity;BMP_temperature;BMP_pressure;BME280_temperature;BME280_humidity;BME280_pressure;Samples;Min_cycle;Max_cycle;Signal;HPM_P1;HPM_P2
2023/04/09 00:00:35;;;;;;;43.65;22.27;;;;;;;7.43;100.00;102246.63;5061743;28;20028;-75
2023/04/09 00:03:00;;;;;;;40.63;21.23;;;;;;;7.40;100.00;102242.47;5060818;28;20036;-75
2023/04/09 00:05:26;;;;;;;43.20;23.02;;;;;;;7.36;100.00;102247.00;5043160;28;20037;-75
2023/04/09 00:07:51;;;;;;;37.95;20.42;;;;;;;7.34;100.00;102246.25;5060854;28;20039;-75
2023/04/09 00:10:16;;;;;;;40.80;21.40;;;;;;;7.31;100.00;102246.47;5040520;28;20037;-75
2023/04/09 00:12:42;;;;;;;43.03;22.13;;;;;;;7.28;100.00;102249.25;5038958;28;20036;-75
2023/04/09 00:15:08;;;;;;;40.03;21.13;;;;;;;7.25;100.00;102243.47;5046615;28;20033;-75
2023/04/09 00:17:33;;;;;;;39.67;21.08;;;;;;;7.21;100.00;102243.69;5040911;28;20032;-75
2023/04/09 00:19:59;;;;;;;38.33;21.27;;;;;;;7.18;100.00;102236.13;5054632;28;20436;-75
2023/04/09 00:22:24;;;;;;;40.88;22.23;;;;;;;7.15;100.00;102241.47;5039579;28;20545;-75
2023/04/09 00:24:50;;;;;;;40.45;20.35;;;;;;;7.09;100.00;102244.44;5060399;28;20029;-75
2023/04/09 00:27:15;;;;;;;40.92;22.23;;;;;;;7.05;100.00;102243.00;5058210;28;20068;-75
2023/04/09 00:29:41;;;;;;;42.33;21.25;;;;;;;7.02;100.00;102238.84;5043589;28;20090;-75
2023/04/09 00:32:06;;;;;;;38.92;21.15;;;;;;;6.98;100.00;102239.97;5057771;28;20482;-77
2023/04/09 00:34:32;;;;;;;41.70;21.75;;;;;;;6.97;100.00;102243.47;5070837;28;20060;-77
2023/04/09 00:36:57;;;;;;;47.03;23.35;;;;;;;6.90;100.00;102239.63;5036403;28;20033;-77
2023/04/09 00:39:23;;;;;;;40.75;19.40;;;;;;;6.87;100.00;102244.16;5059046;28;20031;-77
2023/04/09 00:41:48;;;;;;;41.78;20.85;;;;;;;6.81;100.00;102246.19;5057316;28;20020;-77
2023/04/09 00:44:14;;;;;;;37.40;20.73;;;;;;;6.76;100.00;102244.81;5062189;28;20017;-77
2023/04/09 00:46:40;;;;;;;41.97;20.92;;;;;;;6.74;100.00;102239.78;5060173;28;20051;-75
2023/04/09 00:49:05;;;;;;;45.05;22.40;;;;;;;6.69;100.00;102236.66;5065763;28;20032;-77
2023/04/09 00:51:32;;;;;;;40.85;22.05;;;;;;;6.69;100.00;102243.56;5063882;28;20124;-75
2023/04/09 00:53:57;;;;;;;43.88;23.35;;;;;;;6.68;100.00;102237.56;5062959;28;20495;-75
2023/04/09 00:56:23;;;;;;;44.25;22.33;;;;;;;6.69;100.00;102234.06;5062607;28;20085;-77
2023/04/09 00:58:50;;;;;;;46.58;23.05;;;;;;;6.67;100.00;102242.81;5045536;28;20782;-77
2023/04/09 01:01:15;;;;;;;43.72;22.67;;;;;;;6.67;100.00;102235.06;5059358;28;20020;-77
2023/04/09 01:03:41;;;;;;;48.08;24.42;;;;;;;6.66;100.00;102234.25;5045569;28;20553;-77
2023/04/09 01:06:16;;;;;;;50.17;25.65;;;;;;;6.66;100.00;102230.84;5045234;28;20035;-77
2023/04/09 01:09:01;;;;;;;52.15;25.33;;;;;;;6.63;100.00;102235.28;5030795;28;20075;-77
2023/04/09 01:11:37;;;;;;;50.70;24.75;;;;;;;6.59;100.00;102226.09;5058281;28;20028;-77
2023/04/09 01:14:28;;;;;;;49.33;24.80;;;;;;;6.58;100.00;102228.75;5063216;28;20040;-78
2023/04/09 01:17:02;;;;;;;47.60;23.67;;;;;;;6.56;100.00;102228.84;5030250;28;20040;-76
2023/04/09 01:19:59;;;;;;;54.40;24.30;;;;;;;6.56;100.00;102228.84;5060427;28;20030;-79
2023/04/09 01:22:46;;;;;;;45.05;23.40;;;;;;;6.53;100.00;102229.03;5042203;28;20083;-76
2023/04/09 01:25:24;;;;;;;46.75;24.23;;;;;;;6.49;100.00;102234.47;5040501;28;20029;-76
2023/04/09 01:28:15;;;;;;;47.75;24.05;;;;;;;6.45;100.00;102231.25;5046131;28;20068;-76
2023/04/09 01:30:46;;;;;;;43.78;22.80;;;;;;;6.44;100.00;102227.00;5025177;28;20393;-76
2023/04/09 01:33:13;;;;;;;47.63;23.95;;;;;;;6.41;100.00;102230.63;5040166;28;20033;-76
2023/04/09 01:35:42;;;;;;;49.70;24.17;;;;;;;6.39;100.00;102222.16;5029290;28;20036;-78
2023/04/09 01:38:10;;;;;;;52.83;25.08;;;;;;;6.37;100.00;102218.84;5064015;28;20037;-78
2023/04/09 01:40:36;;;;;;;47.53;24.45;;;;;;;6.32;100.00;102220.88;5066010;28;20487;-78
2023/04/09 01:43:02;;;;;;;44.90;23.20;;;;;;;6.18;100.00;102219.13;5062943;28;20028;-78
2023/04/09 01:45:28;;;;;;;52.25;25.50;;;;;;;6.09;100.00;102213.72;5047268;28;20151;-78
2023/04/09 01:47:55;;;;;;;43.67;22.52;;;;;;;6.01;100.00;102225.31;5062152;28;20040;-78
2023/04/09 01:50:20;;;;;;;48.72;24.20;;;;;;;5.97;100.00;102210.09;5064187;28;20492;-78
2023/04/09 01:52:46;;;;;;;50.63;24.55;;;;;;;5.94;100.00;102210.28;5053891;28;20167;-79
2023/04/09 01:55:11;;;;;;;51.45;24.35;;;;;;;5.90;100.00;102208.81;5044115;28;20094;-80
2023/04/09 01:57:37;;;;;;;49.20;23.15;;;;;;;5.81;100.00;102215.31;5064966;28;20402;-79
2023/04/09 02:00:05;;;;;;;49.10;23.70;;;;;;;5.73;100.00;102208.03;5064206;28;20028;-78
2023/04/09 02:03:07;;;;;;;51.30;25.05;;;;;;;5.72;100.00;102210.72;5062754;28;20033;-78
2023/04/09 02:05:49;;;;;;;49.08;24.63;;;;;;;5.70;100.00;102208.22;5035289;28;20120;-79
2023/04/09 02:08:19;;;;;;;55.78;26.75;;;;;;;5.69;100.00;102211.72;5038451;28;20064;-78
2023/04/09 02:10:52;;;;;;;49.00;23.75;;;;;;;5.67;100.00;102203.28;5050335;28;20083;-78
2023/04/09 02:13:19;;;;;;;55.35;26.52;;;;;;;5.64;100.00;102209.41;5056559;28;20033;-77
2023/04/09 02:15:46;;;;;;;52.70;26.60;;;;;;;5.60;100.00;102205.34;5057564;28;20033;-77
2023/04/09 02:18:28;;;;;;;53.55;25.45;;;;;;;5.56;100.00;102203.06;5013471;28;20033;-79
2023/04/09 02:20:55;;;;;;;56.20;26.80;;;;;;;5.53;100.00;102205.81;5042317;28;20040;-78
2023/04/09 02:23:21;;;;;;;57.10;26.10;;;;;;;5.52;100.00;102210.13;5047470;28;20056;-78
2023/04/09 02:25:47;;;;;;;54.63;26.73;;;;;;;5.49;100.00;102204.31;5039361;28;20469;-79
2023/04/09 02:28:12;;;;;;;54.90;26.77;;;;;;;5.44;100.00;102208.00;5043242;28;20041;-78
2023/04/09 02:30:38;;;;;;;53.67;26.58;;;;;;;5.44;100.00;102204.56;5045376;28;20021;-80
2023/04/09 02:33:03;;;;;;;68.75;30.00;;;;;;;5.41;100.00;102202.19;5062353;28;20516;-80
2023/04/09 02:35:29;;;;;;;58.75;27.27;;;;;;;5.39;100.00;102194.56;5030226;28;20036;-78
2023/04/09 02:37:54;;;;;;;54.78;27.27;;;;;;;5.37;100.00;102200.69;5053978;28;20036;-79
2023/04/09 02:40:20;;;;;;;53.45;25.55;;;;;;;5.35;100.00;102190.50;5051723;28;20032;-80
2023/04/09 02:42:45;;;;;;;61.83;28.02;;;;;;;5.33;100.00;102192.34;5045441;28;20033;-79
2023/04/09 02:45:11;;;;;;;61.03;28.70;;;;;;;5.32;100.00;102187.28;5045617;28;20025;-78
2023/04/09 02:47:36;;;;;;;59.78;29.45;;;;;;;5.28;100.00;102189.22;5029916;28;20120;-78
2023/04/09 02:50:02;;;;;;;57.92;27.40;;;;;;;5.20;100.00;102193.97;5048041;28;20044;-78
2023/04/09 02:52:31;;;;;;;60.17;28.38;;;;;;;5.14;100.00;102190.00;5061985;28;20136;-78
2023/04/09 02:54:56;;;;;;;55.10;28.63;;;;;;;5.08;100.00;102187.75;5045950;28;20909;-78
2023/04/09 02:57:22;;;;;;;54.05;27.65;;;;;;;5.05;100.00;102191.34;5056688;28;20034;-78
2023/04/09 02:59:47;;;;;;;54.90;27.35;;;;;;;5.05;100.00;102193.91;5065511;28;20029;-78
2023/04/09 03:02:13;;;;;;;60.40;29.58;;;;;;;5.04;100.00;102184.53;5038665;28;20025;-79
2023/04/09 03:04:38;;;;;;;60.33;28.00;;;;;;;5.03;100.00;102190.59;5048803;28;20030;-79
2023/04/09 03:07:04;;;;;;;56.13;26.63;;;;;;;5.04;100.00;102186.28;5048707;28;20044;-78
2023/04/09 03:09:30;;;;;;;56.25;27.08;;;;;;;5.00;100.00;102182.22;5045266;28;20064;-80
2023/04/09 03:11:56;;;;;;;56.45;28.33;;;;;;;4.98;100.00;102174.59;5075062;28;20040;-78
2023/04/09 03:14:23;;;;;;;54.60;27.40;;;;;;;4.94;100.00;102172.28;5079177;28;20032;-78
2023/04/09 03:16:48;;;;;;;59.28;27.63;;;;;;;4.91;100.00;102173.25;5049059;28;20039;-78
2023/04/09 03:19:14;;;;;;;56.55;27.58;;;;;;;4.89;100.00;102169.97;5065307;28;20028;-81
2023/04/09 03:21:40;;;;;;;54.13;26.48;;;;;;;4.89;100.00;102175.09;5049099;28;20391;-78
2023/04/09 03:24:06;;;;;;;54.78;25.45;;;;;;;4.87;100.00;102172.59;5049656;28;20039;-78
2023/04/09 03:26:35;;;;;;;51.00;24.75;;;;;;;4.84;100.00;102175.38;5062798;28;20027;-78
2023/04/09 03:29:03;;;;;;;52.88;26.48;;;;;;;4.82;100.00;102173.78;5064893;28;20095;-78
2023/04/09 03:31:29;;;;;;;59.30;28.02;;;;;;;4.79;100.00;102176.53;5067504;28;20555;-78
2023/04/09 03:33:55;;;;;;;51.20;26.17;;;;;;;4.75;100.00;102175.88;5066709;28;20036;-79
2023/04/09 03:36:21;;;;;;;56.05;25.65;;;;;;;4.70;100.00;102175.28;5059790;28;20033;-78
2023/04/09 03:39:09;;;;;;;56.47;26.58;;;;;;;4.65;100.00;102174.69;5055377;28;20502;-81
2023/04/09 03:41:39;;;;;;;49.05;24.60;;;;;;;4.62;100.00;102177.47;5045151;28;20470;-80
2023/04/09 03:44:09;;;;;;;52.92;25.73;;;;;;;4.61;100.00;102175.78;5049550;28;20120;-78
2023/04/09 03:46:45;;;;;;;48.83;24.13;;;;;;;4.58;100.00;102173.41;5033028;28;20029;-78
2023/04/09 03:49:14;;;;;;;51.58;24.20;;;;;;;4.56;100.00;102175.19;5065080;28;20087;-79
2023/04/09 03:51:42;;;;;;;49.15;23.77;;;;;;;4.52;100.00;102174.56;5060959;28;20028;-78
2023/04/09 03:54:07;;;;;;;47.15;24.35;;;;;;;4.48;100.00;102168.75;5064845;28;20040;-79
2023/04/09 03:56:33;;;;;;;45.58;23.63;;;;;;;4.43;100.00;102173.31;5047978;28;20082;-80
2023/04/09 03:59:00;;;;;;;53.78;23.65;;;;;;;4.38;100.00;102172.72;5048465;28;20029;-78
2023/04/09 04:01:34;;;;;;;49.13;23.73;;;;;;;4.29;100.00;102170.63;5050076;28;20120;-79
2023/04/09 04:04:00;;;;;;;53.30;26.17;;;;;;;4.20;100.00;102173.69;5048418;28;20376;-77
2023/04/09 04:06:34;;;;;;;49.13;22.23;;;;;;;4.08;100.00;102175.16;5065606;28;20039;-79
2023/04/09 04:09:13;;;;;;;39.92;20.05;;;;;;;3.97;100.00;102170.59;5047958;28;20406;-81
2023/04/09 04:11:46;;;;;;;54.60;22.83;;;;;;;3.90;100.00;102175.22;5058923;28;20505;-78
2023/04/09 04:14:12;;;;;;;43.03;20.52;;;;;;;3.84;100.00;102179.81;5051855;28;20032;-79
2023/04/09 04:16:41;;;;;;;40.22;20.85;;;;;;;3.81;100.00;102177.44;5047435;28;20027;-78
2023/04/09 04:19:07;;;;;;;39.55;19.95;;;;;;;3.77;100.00;102188.72;5049179;28;20703;-80
2023/04/09 04:21:39;;;;;;;34.92;19.20;;;;;;;3.72;100.00;102185.59;5065276;28;20082;-79
2023/04/09 04:24:05;;;;;;;37.45;19.17;;;;;;;3.66;100.00;102172.16;5066118;28;20028;-80
2023/04/09 04:26:31;;;;;;;40.22;19.90;;;;;;;3.64;100.00;102173.97;5078764;28;20071;-78
2023/04/09 04:28:56;;;;;;;40.60;19.48;;;;;;;3.62;100.00;102174.97;5047901;28;20037;-81
2023/04/09 04:31:43;;;;;;;45.92;22.90;;;;;;;3.63;100.00;102176.63;5047426;28;20433;-79
2023/04/09 04:34:10;;;;;;;43.80;21.63;;;;;;;3.65;100.00;102177.38;5046824;28;20041;-78
2023/04/09 04:36:36;;;;;;;45.53;22.33;;;;;;;3.65;100.00;102177.38;5051242;28;20090;-79
2023/04/09 04:39:02;;;;;;;47.17;23.80;;;;;;;3.62;100.00;102177.53;5066316;28;20078;-78
2023/04/09 04:41:48;;;;;;;45.63;23.20;;;;;;;3.58;100.00;102187.13;5053392;28;20036;-78
2023/04/09 04:44:19;;;;;;;45.47;23.35;;;;;;;3.51;100.00;102176.31;5064031;28;20105;-79
2023/04/09 04:46:48;;;;;;;45.60;23.38;;;;;;;3.46;100.00;102185.16;5062031;28;20918;-79
2023/04/09 04:49:13;;;;;;;45.67;22.50;;;;;;;3.40;100.00;102185.47;5050939;28;20025;-78
2023/04/09 04:51:45;;;;;;;39.47;20.75;;;;;;;3.31;100.00;102185.03;5061888;28;20028;-78
2023/04/09 04:54:13;;;;;;;41.75;21.73;;;;;;;3.25;100.00;102192.16;5047139;28;20498;-79
2023/04/09 04:56:44;;;;;;;37.97;20.40;;;;;;;3.21;100.00;102190.66;5048593;28;20032;-78
2023/04/09 04:59:17;;;;;;;41.13;20.83;;;;;;;3.15;100.00;102186.66;5048268;28;20035;-79
2023/04/09 05:01:56;;;;;;;36.13;19.70;;;;;;;3.13;100.00;102188.47;5047931;28;20044;-78
2023/04/09 05:04:21;;;;;;;35.00;19.98;;;;;;;3.10;100.00;102186.03;5059443;28;20036;-78
2023/04/09 05:06:47;;;;;;;33.47;19.25;;;;;;;3.11;100.00;102188.53;5058167;28;20442;-78
2023/04/09 05:09:17;;;;;;;34.70;18.90;;;;;;;3.11;100.00;102187.72;5064264;28;20399;-78
2023/04/09 05:11:58;;;;;;;33.63;19.63;;;;;;;3.09;100.00;102179.28;5062343;28;20082;-78
2023/04/09 05:14:24;;;;;;;36.25;19.70;;;;;;;3.09;100.00;102192.09;5049178;28;20021;-78
2023/04/09 05:16:51;;;;;;;38.83;21.08;;;;;;;3.08;100.00;102180.16;5051430;28;20067;-78
2023/04/09 05:19:18;;;;;;;41.33;20.60;;;;;;;3.05;100.00;102186.28;5061351;28;20024;-79
2023/04/09 05:21:45;;;;;;;39.65;21.00;;;;;;;3.03;100.00;102185.53;5048809;28;20029;-79
2023/04/09 05:24:11;;;;;;;38.00;20.45;;;;;;;3.01;100.00;102183.91;5064898;28;20056;-80
2023/04/09 05:26:36;;;;;;;37.78;20.88;;;;;;;2.99;100.00;102178.03;5047208;28;20507;-78
2023/04/09 05:29:02;;;;;;;46.45;21.70;;;;;;;2.98;100.00;102187.47;5066429;28;20033;-78
2023/04/09 05:31:27;;;;;;;56.60;24.65;;;;;;;2.98;100.00;102184.06;5064842;28;20028;-80
2023/04/09 05:34:02;;;;;;;46.00;22.30;;;;;;;2.97;100.00;102183.22;5059295;28;20035;-78
2023/04/09 05:36:35;;;;;;;50.10;23.77;;;;;;;2.98;100.00;102184.91;5048679;28;20498;-80
2023/04/09 05:39:01;;;;;;;53.05;24.13;;;;;;;2.98;100.00;102177.22;5056259;28;20028;-79
2023/04/09 05:41:28;;;;;;;52.45;24.02;;;;;;;3.02;100.00;102183.03;5048083;28;20117;-78
2023/04/09 05:44:20;;;;;;;54.60;26.10;;;;;;;3.07;100.00;102183.59;5053977;28;20076;-78
2023/04/09 05:46:46;;;;;;;49.78;24.80;;;;;;;3.13;100.00;102188.47;5061347;28;20036;-78
2023/04/09 05:49:16;;;;;;;50.30;23.67;;;;;;;3.17;100.00;102184.84;5061197;28;20079;-79
2023/04/09 05:51:44;;;;;;;45.10;23.27;;;;;;;3.19;100.00;102187.34;5048138;28;20036;-78
2023/04/09 05:54:10;;;;;;;47.33;23.42;;;;;;;3.22;100.00;102185.47;5063376;28;20047;-78
2023/04/09 05:56:36;;;;;;;46.72;24.42;;;;;;;3.26;100.00;102184.41;5048472;28;20028;-78
2023/04/09 05:59:03;;;;;;;46.25;22.95;;;;;;;3.29;100.00;102181.66;5050403;28;20047;-78
2023/04/09 06:01:29;;;;;;;53.72;25.17;;;;;;;3.35;100.00;102189.97;5064655;28;20490;-79
2023/04/09 06:03:54;;;;;;;50.83;24.83;;;;;;;3.38;100.00;102189.84;5064079;28;20040;-78
2023/04/09 06:06:20;;;;;;;52.00;26.02;;;;;;;3.45;100.00;102188.63;5067794;28;20020;-78
2023/04/09 06:08:46;;;;;;;55.03;26.85;;;;;;;3.50;100.00;102189.22;5051266;28;20047;-78
2023/04/09 06:11:12;;;;;;;60.08;27.55;;;;;;;3.58;100.00;102191.41;5047453;28;20032;-78
2023/04/09 06:13:37;;;;;;;55.40;27.55;;;;;;;3.69;100.00;102189.13;5059383;28;20061;-78
2023/04/09 06:16:07;;;;;;;56.53;27.80;;;;;;;3.76;100.00;102192.22;5068251;28;20164;-78
2023/04/09 06:18:33;;;;;;;59.83;28.30;;;;;;;3.80;100.00;102191.16;5061343;28;20398;-79
2023/04/09 06:21:06;;;;;;;61.05;29.08;;;;;;;3.86;100.00;102188.28;5061323;28;20104;-78
2023/04/09 06:23:35;;;;;;;69.45;32.20;;;;;;;3.97;100.00;102190.28;5065406;28;20041;-78
2023/04/09 06:26:01;;;;;;;59.85;28.30;;;;;;;4.06;100.00;102192.38;5065926;28;20039;-79
2023/04/09 06:28:28;;;;;;;61.03;30.50;;;;;;;4.19;100.00;102200.28;5081097;28;20063;-79
2023/04/09 06:30:54;;;;;;;62.25;30.00;;;;;;;4.27;100.00;102198.13;5068384;28;20048;-80
2023/04/09 06:33:20;;;;;;;63.05;29.45;;;;;;;4.40;100.00;102199.16;5063010;28;20025;-78
2023/04/09 06:35:46;;;;;;;59.88;29.05;;;;;;;4.58;100.00;102196.53;5083922;28;20047;-78
2023/04/09 06:38:12;;;;;;;59.85;30.17;;;;;;;4.62;100.00;102198.84;5050426;28;20036;-79
2023/04/09 06:40:38;;;;;;;62.67;30.10;;;;;;;4.80;100.00;102198.72;5044901;28;20047;-78
2023/04/09 06:43:04;;;;;;;61.72;30.55;;;;;;;5.05;100.00;102201.63;5078154;28;20063;-78
2023/04/09 06:45:37;;;;;;;55.80;29.75;;;;;;;5.24;100.00;102203.97;5064170;28;20028;-79
2023/04/09 06:48:03;;;;;;;59.15;31.08;;;;;;;5.45;100.00;102201.09;5068965;28;20399;-79
2023/04/09 06:50:29;;;;;;;55.97;29.38;;;;;;;5.69;100.00;102208.31;5087722;28;20063;-78
2023/04/09 06:52:54;;;;;;;57.28;28.17;;;;;;;5.91;100.00;102203.53;5051597;28;20271;-78
2023/04/09 06:55:20;;;;;;;53.03;26.85;;;;;;;6.22;100.00;102207.72;5067440;28;20037;-78
2023/04/09 06:57:46;;;;;;;48.42;25.60;;;;;;;6.72;100.00;102202.94;5049879;28;20087;-79
2023/04/09 07:00:12;;;;;;;47.53;23.77;;;;;;;7.24;100.00;102211.69;5058345;28;20021;-78
2023/04/09 07:02:37;;;;;;;44.70;22.70;;;;;;;8.03;98.72;102204.72;5065843;28;20521;-79
2023/04/09 07:05:03;;;;;;;42.42;21.60;;;;;;;8.84;93.23;102199.97;5067102;28;20021;-78
2023/04/09 07:07:29;;;;;;;44.55;21.92;;;;;;;9.54;87.45;102191.38;5063007;28;20112;-79
2023/04/09 07:09:55;;;;;;;38.70;20.30;;;;;;;9.81;82.78;102201.41;5065585;28;20596;-77
2023/04/09 07:12:26;;;;;;;38.08;20.98;;;;;;;10.40;80.63;102192.56;5066550;28;20032;-78
2023/04/09 07:14:52;;;;;;;38.72;19.52;;;;;;;10.66;77.07;102195.69;5045945;28;20033;-77
2023/04/09 07:17:17;;;;;;;40.75;19.92;;;;;;;10.94;75.78;102195.25;5065956;28;20072;-77
2023/04/09 07:19:43;;;;;;;36.88;18.77;;;;;;;11.25;74.75;102186.59;5067070;28;20024;-76
2023/04/09 07:22:08;;;;;;;37.40;17.90;;;;;;;10.93;72.88;102191.00;5064058;28;20062;-76
2023/04/09 07:24:34;;;;;;;34.17;17.63;;;;;;;10.80;72.25;102202.38;5051778;28;20036;-75
2023/04/09 07:27:03;;;;;;;32.63;16.88;;;;;;;10.98;71.01;102205.25;5066037;28;20044;-75
2023/04/09 07:29:28;;;;;;;33.33;17.15;;;;;;;11.08;71.58;102200.97;5065903;28;20082;-77
2023/04/09 07:31:53;;;;;;;28.90;16.25;;;;;;;11.59;67.72;102194.19;5051247;28;20025;-77
2023/04/09 07:34:19;;;;;;;30.05;15.48;;;;;;;11.88;67.30;102198.69;5043646;28;20020;-75
2023/04/09 07:36:44;;;;;;;30.00;16.05;;;;;;;11.78;67.05;102198.66;5044470;28;20025;-76
2023/04/09 07:39:10;;;;;;;30.85;15.65;;;;;;;12.11;68.09;102196.78;5067925;28;20078;-75
2023/04/09 07:41:36;;;;;;;28.33;15.82;;;;;;;12.59;65.13;102196.03;5052932;28;20115;-75
2023/04/09 07:44:02;;;;;;;26.73;14.82;;;;;;;12.79;64.05;102199.50;5062470;28;20028;-75
2023/04/09 07:46:28;;;;;;;28.70;15.40;;;;;;;13.02;61.51;102200.03;5061026;28;20028;-75
2023/04/09 07:48:53;;;;;;;32.80;16.00;;;;;;;12.83;62.12;102206.06;5065372;28;20039;-75
2023/04/09 07:51:19;;;;;;;24.73;13.90;;;;;;;13.07;62.86;102206.59;5049890;28;20024;-75
2023/04/09 07:53:44;;;;;;;25.20;13.88;;;;;;;13.48;61.77;102199.44;5046589;28;20128;-76
2023/04/09 07:56:10;;;;;;;29.45;14.77;;;;;;;13.62;61.54;102204.22;5048749;28;20094;-75
2023/04/09 07:58:36;;;;;;;26.80;14.30;;;;;;;13.56;60.58;102209.97;5027800;28;20032;-75
2023/04/09 08:01:02;;;;;;;25.73;13.80;;;;;;;13.83;60.20;102202.22;5064575;28;20093;-76
2023/04/09 08:03:28;;;;;;;25.38;14.10;;;;;;;13.68;60.69;102192.41;5046371;28;20067;-76
2023/04/09 08:05:53;;;;;;;27.90;13.65;;;;;;;13.70;59.62;102209.53;5045604;28;20035;-76
2023/04/09 08:08:19;;;;;;;24.90;13.55;;;;;;;13.46;58.66;102207.41;5066942;28;20816;-76
2023/04/09 08:10:44;;;;;;;25.67;13.52;;;;;;;13.58;59.81;102206.28;5064087;28;20032;-76
2023/04/09 08:13:10;;;;;;;25.20;13.52;;;;;;;13.44;59.19;102210.13;5062585;28;20801;-75
2023/04/09 08:15:36;;;;;;;22.80;13.30;;;;;;;14.03;58.56;102199.50;5059493;28;20040;-75
2023/04/09 08:18:02;;;;;;;19.60;11.73;;;;;;;14.20;58.16;102196.16;5064404;28;20537;-76
2023/04/09 08:20:29;;;;;;;22.70;11.68;;;;;;;14.58;57.36;102194.28;5048413;28;20054;-76
2023/04/09 08:22:54;;;;;;;19.60;11.88;;;;;;;14.22;56.39;102198.59;5048190;28;20044;-76
2023/04/09 08:25:21;;;;;;;18.55;10.93;;;;;;;14.20;55.90;102193.53;5067851;28;20025;-76
2023/04/09 08:27:46;;;;;;;36.95;20.15;;;;;;;14.33;56.53;102194.97;5042996;28;20387;-76
2023/04/09 08:30:12;;;;;;;22.20;12.27;;;;;;;14.59;55.94;102189.88;5058703;28;20040;-75
2023/04/09 08:32:37;;;;;;;21.42;11.55;;;;;;;14.75;55.95;102195.25;5062884;28;20498;-76
2023/04/09 08:35:03;;;;;;;21.20;11.38;;;;;;;14.24;57.04;102201.91;5064178;28;20037;-76
2023/04/09 08:37:28;;;;;;;21.88;11.35;;;;;;;13.91;57.60;102204.09;5060317;28;20041;-75
2023/04/09 08:39:54;;;;;;;20.50;12.05;;;;;;;14.44;56.74;102205.19;5061036;28;20032;-76
2023/04/09 08:42:20;;;;;;;18.30;10.45;;;;;;;14.66;56.37;102195.34;5046601;28;20052;-76
2023/04/09 08:44:46;;;;;;;18.63;11.00;;;;;;;14.62;57.12;102204.41;5060108;28;20037;-75
2023/04/09 08:47:12;;;;;;;21.48;11.18;;;;;;;14.90;57.00;102192.94;5061726;28;20128;-76
2023/04/09 08:49:40;;;;;;;17.02;9.32;;;;;;;15.12;54.87;102204.69;5061356;28;20037;-75
2023/04/09 08:52:06;;;;;;;18.58;10.90;;;;;;;15.32;55.21;102192.25;5045271;28;20033;-75
2023/04/09 08:54:32;;;;;;;18.10;10.43;;;;;;;15.10;53.79;102197.97;5059365;28;20391;-75
2023/04/09 08:56:58;;;;;;;18.58;10.30;;;;;;;14.82;54.04;102197.25;5047707;28;20055;-75
2023/04/09 08:59:23;;;;;;;18.17;11.02;;;;;;;14.68;53.88;102194.22;5062223;28;20399;-75
2023/04/09 09:02:05;;;;;;;18.75;10.95;;;;;;;15.07;54.17;102190.44;5060048;28;20028;-75
2023/04/09 09:04:47;;;;;;;18.55;9.55;;;;;;;15.24;55.75;102186.16;5058812;28;20048;-76
2023/04/09 09:07:13;;;;;;;20.90;12.05;;;;;;;14.95;53.95;102185.44;5034750;28;20032;-75
2023/04/09 09:09:59;;;;;;;19.83;10.77;;;;;;;15.32;54.91;102181.00;5063463;28;20082;-75
2023/04/09 09:12:34;;;;;;;18.35;10.82;;;;;;;15.28;55.25;102179.66;5062170;28;20037;-77
2023/04/09 09:14:59;;;;;;;23.95;11.48;;;;;;;15.52;53.93;102178.97;5043671;28;20032;-76
2023/04/09 09:17:25;;;;;;;21.88;12.15;;;;;;;14.96;55.46;102188.91;5062932;28;20148;-74
2023/04/09 09:19:51;;;;;;;17.08;10.50;;;;;;;14.85;56.20;102176.06;5051761;28;20098;-76
2023/04/09 09:22:16;;;;;;;19.90;11.35;;;;;;;15.15;55.83;102177.44;5066963;28;20415;-75
2023/04/09 09:24:50;;;;;;;20.00;10.60;;;;;;;15.16;55.22;102172.06;5050082;28;20058;-75
2023/04/09 09:27:39;;;;;;;21.27;11.57;;;;;;;15.37;56.21;102171.72;5065717;28;20044;-76
2023/04/09 09:30:05;;;;;;;18.75;10.57;;;;;;;15.51;57.94;102172.13;5058034;28;20056;-76
2023/04/09 09:32:32;;;;;;;18.85;9.95;;;;;;;15.66;54.96;102167.94;5061615;28;20583;-76
2023/04/09 09:35:01;;;;;;;17.73;10.52;;;;;;;15.71;53.96;102160.44;5048506;28;20519;-76
2023/04/09 09:37:27;;;;;;;18.33;10.82;;;;;;;15.94;55.92;102163.34;5055518;28;20036;-75
2023/04/09 09:39:54;;;;;;;15.55;9.90;;;;;;;16.11;55.79;102161.59;5064440;28;20482;-75
2023/04/09 09:42:20;;;;;;;17.08;9.70;;;;;;;16.05;52.73;102158.78;5064262;28;20426;-75
2023/04/09 09:44:46;;;;;;;15.10;8.20;;;;;;;16.22;52.22;102154.41;5082840;28;20082;-76
2023/04/09 09:47:13;;;;;;;15.98;8.75;;;;;;;16.30;49.69;102154.44;5065730;28;20040;-76
2023/04/09 09:49:39;;;;;;;15.10;8.35;;;;;;;16.18;50.57;102151.31;5049665;28;20043;-76
2023/04/09 09:52:09;;;;;;;13.38;8.95;;;;;;;15.69;49.50;102149.34;5036866;28;20040;-75
2023/04/09 09:54:46;;;;;;;20.23;9.68;;;;;;;15.09;52.30;102159.78;5049241;28;20036;-76
2023/04/09 09:57:15;;;;;;;14.88;9.02;;;;;;;15.08;52.91;102155.50;5066830;28;20116;-76
2023/04/09 09:59:51;;;;;;;16.10;9.05;;;;;;;14.52;55.25;102154.84;5047529;28;20169;-76
2023/04/09 10:02:22;;;;;;;15.43;8.45;;;;;;;14.32;58.66;102156.81;5068478;28;20053;-75
2023/04/09 10:04:49;;;;;;;16.67;9.30;;;;;;;13.94;54.69;102151.66;5054689;28;20029;-76
2023/04/09 10:07:15;;;;;;;12.35;7.40;;;;;;;13.91;52.08;102157.16;5047127;28;20048;-76
2023/04/09 10:09:47;;;;;;;13.60;7.68;;;;;;;13.79;52.44;102155.72;5068004;28;20036;-75
2023/04/09 10:12:12;;;;;;;13.68;7.57;;;;;;;13.99;52.80;102159.03;5060575;28;20029;-76
2023/04/09 10:14:39;;;;;;;14.80;8.57;;;;;;;14.05;54.56;102155.84;5062803;28;20725;-75
2023/04/09 10:17:05;;;;;;;13.35;7.30;;;;;;;13.92;54.30;102153.59;5037398;28;20119;-76
2023/04/09 10:19:37;;;;;;;14.70;7.72;;;;;;;14.16;55.66;102141.78;5065137;28;20519;-76
2023/04/09 10:22:10;;;;;;;14.13;7.93;;;;;;;14.53;52.28;102143.47;5085082;28;20113;-76
2023/04/09 10:24:36;;;;;;;15.38;8.07;;;;;;;14.70;52.05;102154.91;5066377;28;20032;-76
2023/04/09 10:27:12;;;;;;;12.90;7.80;;;;;;;14.28;50.24;102145.00;5067094;28;20102;-76
2023/04/09 10:29:44;;;;;;;13.52;7.75;;;;;;;14.26;51.75;102147.78;5085738;28;20033;-75
2023/04/09 10:32:10;;;;;;;11.93;6.70;;;;;;;14.23;51.01;102135.03;5047760;28;20040;-76
2023/04/09 10:34:41;;;;;;;11.18;6.63;;;;;;;13.95;51.21;102132.44;5049886;28;20028;-76
2023/04/09 10:37:15;;;;;;;12.95;6.78;;;;;;;13.90;50.41;102133.84;5057713;28;20033;-76
2023/04/09 10:39:46;;;;;;;10.45;6.13;;;;;;;13.86;48.87;102140.31;5064496;28;20036;-76
2023/04/09 10:42:47;;;;;;;10.68;6.13;;;;;;;14.51;50.94;102130.56;5041352;28;20071;-76
2023/04/09 10:45:15;;;;;;;12.73;6.80;;;;;;;14.63;47.13;102130.38;5042065;28;20055;-76
2023/04/09 10:47:42;;;;;;;9.00;5.50;;;;;;;14.79;47.47;102120.06;5066048;28;20058;-76
2023/04/09 10:50:23;;;;;;;9.55;5.35;;;;;;;14.68;48.55;102125.53;5067189;28;20028;-76
2023/04/09 10:52:53;;;;;;;8.95;5.10;;;;;;;14.51;50.19;102129.75;5064972;28;20052;-76
2023/04/09 10:55:37;;;;;;;10.10;5.57;;;;;;;14.26;48.65;102116.47;5050791;28;20054;-77
2023/04/09 10:58:07;;;;;;;10.85;5.57;;;;;;;14.52;46.75;102124.38;5067913;28;20048;-77
2023/04/09 11:00:36;;;;;;;10.15;6.03;;;;;;;14.83;47.83;102121.38;5063677;28;20036;-77
2023/04/09 11:03:03;;;;;;;13.68;8.07;;;;;;;15.05;49.45;102114.00;5038911;28;20033;-75
2023/04/09 11:05:38;;;;;;;10.98;6.18;;;;;;;15.33;48.52;102109.44;5063238;28;20025;-76
2023/04/09 11:08:11;;;;;;;11.50;5.95;;;;;;;15.58;45.60;102110.41;5083816;28;20029;-76
2023/04/09 11:10:38;;;;;;;12.18;6.38;;;;;;;15.82;48.14;102109.66;5067510;28;20078;-76
2023/04/09 11:13:04;;;;;;;16.35;8.18;;;;;;;15.81;46.11;102107.25;5033408;28;20113;-77
2023/04/09 11:15:35;;;;;;;10.05;5.70;;;;;;;15.75;45.82;102106.88;5050306;28;20071;-77
2023/04/09 11:18:02;;;;;;;10.68;6.05;;;;;;;15.89;48.31;102094.19;5064763;28;20380;-77